Attawapiskat Airport

Airport
ICAO code: 
CYAT
IATA Code: 
YAT
Summary
ICAO Region: 
NAM
Territory: 
Location: 
Attawapiskat, Ontario
Serving: 
Attawapiskat First Nation
Elevation: 
30 ft
Coordinates: 
Aerial View: 
52° 55' 35.595" N, 82° 25' 49.709" W
Metar
Observation
CYAT 271200Z AUTO 29005KT 9SM CLR M20/M21 A3000 RMK SLP163
Station
Attawapiskat Airport
Date/Time
2021-11-27 12:00:00
Wind direction
290°
Wind speed
05 kts
Lowest cloud amount
n/a
Temperature
-20°C
Dew point
-21°C
Humidity
91%
Weather condition
n/a

Description

Regional airport adjacent to the Attawapiskat First Nation, Ontario, Canada.

Climatology

Subarctic climate (Köppen climate classification Dfc) - long, usually very cold winters, and short, cool to mild summers.

Runways

Designator Length Width Surface Rops
6/24 1067 30 GRVL No/No
Airport map: 
Aerial View: 

SKYbrary Partners:

Safety knowledge contributed by: